sensor_id;sensor_type;location;lat;lon;timestamp;pressure;altitude;pressure_sealevel;temperature;humidity
64352;BME280;50680;52.626;-8.668;2023-09-18T00:01:52;100392.66;;;15.56;100.00
64352;BME280;50680;52.626;-8.668;2023-09-18T00:04:19;100394.03;;;15.60;100.00
64352;BME280;50680;52.626;-8.668;2023-09-18T00:06:46;100387.94;;;15.59;100.00
64352;BME280;50680;52.626;-8.668;2023-09-18T00:09:12;100391.72;;;15.67;100.00
64352;BME280;50680;52.626;-8.668;2023-09-18T00:11:40;100392.84;;;15.74;100.00
64352;BME280;50680;52.626;-8.668;2023-09-18T00:14:08;100383.88;;;15.76;100.00
64352;BME280;50680;52.626;-8.668;2023-09-18T00:16:36;100381.44;;;15.73;100.00
64352;BME280;50680;52.626;-8.668;2023-09-18T00:19:23;100385.19;;;15.71;100.00
64352;BME280;50680;52.626;-8.668;2023-09-18T00:21:50;100379.59;;;15.64;100.00
64352;BME280;50680;52.626;-8.668;2023-09-18T00:24:19;100374.66;;;15.50;100.00
64352;BME280;50680;52.626;-8.668;2023-09-18T00:26:47;100376.41;;;15.39;100.00
64352;BME280;50680;52.626;-8.668;2023-09-18T00:29:14;100381.09;;;15.26;100.00
64352;BME280;50680;52.626;-8.668;2023-09-18T00:31:41;100378.03;;;15.10;100.00
64352;BME280;50680;52.626;-8.668;2023-09-18T00:34:08;100365.16;;;14.95;100.00
64352;BME280;50680;52.626;-8.668;2023-09-18T00:36:35;100374.34;;;14.80;100.00
64352;BME280;50680;52.626;-8.668;2023-09-18T00:39:02;100370.09;;;14.68;100.00
64352;BME280;50680;52.626;-8.668;2023-09-18T00:41:30;100367.25;;;14.59;100.00
64352;BME280;50680;52.626;-8.668;2023-09-18T00:43:57;100375.16;;;14.48;100.00
64352;BME280;50680;52.626;-8.668;2023-09-18T00:46:24;100378.41;;;14.40;100.00
64352;BME280;50680;52.626;-8.668;2023-09-18T00:48:51;100385.03;;;14.35;100.00
64352;BME280;50680;52.626;-8.668;2023-09-18T00:51:18;100380.13;;;14.30;100.00
64352;BME280;50680;52.626;-8.668;2023-09-18T00:53:46;100367.41;;;14.24;100.00
64352;BME280;50680;52.626;-8.668;2023-09-18T00:56:15;100366.34;;;14.15;100.00
64352;BME280;50680;52.626;-8.668;2023-09-18T00:58:44;100362.78;;;14.16;100.00
64352;BME280;50680;52.626;-8.668;2023-09-18T01:01:12;100358.44;;;14.15;100.00
64352;BME280;50680;52.626;-8.668;2023-09-18T01:03:42;100356.06;;;14.12;100.00
64352;BME280;50680;52.626;-8.668;2023-09-18T01:06:10;100362.53;;;14.08;100.00
64352;BME280;50680;52.626;-8.668;2023-09-18T01:08:36;100343.03;;;13.99;100.00
64352;BME280;50680;52.626;-8.668;2023-09-18T01:11:11;100349.63;;;13.94;100.00
64352;BME280;50680;52.626;-8.668;2023-09-18T01:13:46;100345.81;;;13.86;100.00
64352;BME280;50680;52.626;-8.668;2023-09-18T01:16:23;100340.78;;;13.83;100.00
64352;BME280;50680;52.626;-8.668;2023-09-18T01:18:51;100329.75;;;13.78;100.00
64352;BME280;50680;52.626;-8.668;2023-09-18T01:21:19;100328.47;;;13.72;100.00
64352;BME280;50680;52.626;-8.668;2023-09-18T01:23:48;100331.81;;;13.75;100.00
64352;BME280;50680;52.626;-8.668;2023-09-18T01:26:16;100332.03;;;13.71;100.00
64352;BME280;50680;52.626;-8.668;2023-09-18T01:28:43;100331.19;;;13.60;100.00
64352;BME280;50680;52.626;-8.668;2023-09-18T01:31:09;100333.13;;;13.58;100.00
64352;BME280;50680;52.626;-8.668;2023-09-18T01:33:37;100325.22;;;13.58;100.00
64352;BME280;50680;52.626;-8.668;2023-09-18T01:36:07;100320.44;;;13.51;100.00
64352;BME280;50680;52.626;-8.668;2023-09-18T01:38:35;100321.38;;;13.50;100.00
64352;BME280;50680;52.626;-8.668;2023-09-18T01:41:03;100309.66;;;13.43;100.00
64352;BME280;50680;52.626;-8.668;2023-09-18T01:43:30;100310.00;;;13.39;100.00
64352;BME280;50680;52.626;-8.668;2023-09-18T01:45:58;100310.34;;;13.34;100.00
64352;BME280;50680;52.626;-8.668;2023-09-18T01:48:25;100314.28;;;13.28;100.00
64352;BME280;50680;52.626;-8.668;2023-09-18T01:50:52;100318.22;;;13.23;100.00
64352;BME280;50680;52.626;-8.668;2023-09-18T01:53:19;100317.63;;;13.19;100.00
64352;BME280;50680;52.626;-8.668;2023-09-18T01:55:46;100306.72;;;13.12;100.00
64352;BME280;50680;52.626;-8.668;2023-09-18T01:58:14;100314.13;;;13.07;100.00
64352;BME280;50680;52.626;-8.668;2023-09-18T02:00:43;100304.81;;;13.03;100.00
64352;BME280;50680;52.626;-8.668;2023-09-18T02:03:10;100304.31;;;12.98;100.00
64352;BME280;50680;52.626;-8.668;2023-09-18T02:05:57;100299.75;;;12.89;100.00
64352;BME280;50680;52.626;-8.668;2023-09-18T02:08:25;100297.47;;;12.84;100.00
64352;BME280;50680;52.626;-8.668;2023-09-18T02:10:52;100301.28;;;12.80;100.00
64352;BME280;50680;52.626;-8.668;2023-09-18T02:13:19;100295.53;;;12.75;100.00
64352;BME280;50680;52.626;-8.668;2023-09-18T02:15:45;100285.47;;;12.69;100.00
64352;BME280;50680;52.626;-8.668;2023-09-18T02:18:12;100287.00;;;12.60;100.00
64352;BME280;50680;52.626;-8.668;2023-09-18T02:20:40;100279.78;;;12.51;100.00
64352;BME280;50680;52.626;-8.668;2023-09-18T02:23:08;100284.03;;;12.40;100.00
64352;BME280;50680;52.626;-8.668;2023-09-18T02:25:35;100272.09;;;12.36;100.00
64352;BME280;50680;52.626;-8.668;2023-09-18T02:28:01;100278.97;;;12.26;100.00
64352;BME280;50680;52.626;-8.668;2023-09-18T02:30:28;100264.63;;;12.19;100.00
64352;BME280;50680;52.626;-8.668;2023-09-18T02:32:55;100262.78;;;12.08;100.00
64352;BME280;50680;52.626;-8.668;2023-09-18T02:35:22;100262.38;;;12.01;100.00
64352;BME280;50680;52.626;-8.668;2023-09-18T02:37:49;100257.81;;;11.92;100.00
64352;BME280;50680;52.626;-8.668;2023-09-18T02:40:16;100254.97;;;11.82;100.00
64352;BME280;50680;52.626;-8.668;2023-09-18T02:42:43;100254.44;;;11.77;100.00
64352;BME280;50680;52.626;-8.668;2023-09-18T02:45:11;100246.63;;;11.64;100.00
64352;BME280;50680;52.626;-8.668;2023-09-18T02:47:37;100244.44;;;11.58;100.00
64352;BME280;50680;52.626;-8.668;2023-09-18T02:50:08;100249.16;;;11.53;100.00
64352;BME280;50680;52.626;-8.668;2023-09-18T02:52:35;100252.00;;;11.50;100.00
64352;BME280;50680;52.626;-8.668;2023-09-18T02:55:02;100245.59;;;11.54;100.00
64352;BME280;50680;52.626;-8.668;2023-09-18T02:57:29;100237.28;;;11.60;100.00
64352;BME280;50680;52.626;-8.668;2023-09-18T02:59:56;100234.47;;;11.75;100.00
64352;BME280;50680;52.626;-8.668;2023-09-18T03:02:23;100236.91;;;11.91;100.00
64352;BME280;50680;52.626;-8.668;2023-09-18T03:04:50;100242.19;;;12.02;100.00
64352;BME280;50680;52.626;-8.668;2023-09-18T03:07:17;100240.47;;;12.14;100.00
64352;BME280;50680;52.626;-8.668;2023-09-18T03:09:44;100255.22;;;12.28;100.00
64352;BME280;50680;52.626;-8.668;2023-09-18T03:12:11;100250.06;;;12.62;100.00
64352;BME280;50680;52.626;-8.668;2023-09-18T03:14:37;100258.75;;;12.51;100.00
64352;BME280;50680;52.626;-8.668;2023-09-18T03:17:05;100251.47;;;12.54;100.00
64352;BME280;50680;52.626;-8.668;2023-09-18T03:19:32;100252.44;;;12.65;100.00
64352;BME280;50680;52.626;-8.668;2023-09-18T03:21:58;100252.38;;;12.77;100.00
64352;BME280;50680;52.626;-8.668;2023-09-18T03:24:25;100247.59;;;12.83;100.00
64352;BME280;50680;52.626;-8.668;2023-09-18T03:26:53;100246.41;;;12.87;100.00
64352;BME280;50680;52.626;-8.668;2023-09-18T03:29:20;100238.88;;;12.93;100.00
64352;BME280;50680;52.626;-8.668;2023-09-18T03:31:47;100232.56;;;12.96;100.00
64352;BME280;50680;52.626;-8.668;2023-09-18T03:34:14;100229.94;;;12.96;100.00
64352;BME280;50680;52.626;-8.668;2023-09-18T03:36:41;100232.06;;;13.02;100.00
64352;BME280;50680;52.626;-8.668;2023-09-18T03:39:07;100231.13;;;13.03;100.00
64352;BME280;50680;52.626;-8.668;2023-09-18T03:41:36;100223.13;;;13.05;100.00
64352;BME280;50680;52.626;-8.668;2023-09-18T03:44:03;100234.94;;;13.10;100.00
64352;BME280;50680;52.626;-8.668;2023-09-18T03:46:30;100245.47;;;13.10;100.00
64352;BME280;50680;52.626;-8.668;2023-09-18T03:48:58;100244.38;;;13.13;100.00
64352;BME280;50680;52.626;-8.668;2023-09-18T03:51:24;100252.16;;;13.14;100.00
64352;BME280;50680;52.626;-8.668;2023-09-18T03:53:51;100256.38;;;13.17;100.00
64352;BME280;50680;52.626;-8.668;2023-09-18T03:56:18;100248.97;;;13.22;100.00
64352;BME280;50680;52.626;-8.668;2023-09-18T03:58:45;100255.75;;;13.25;100.00
64352;BME280;50680;52.626;-8.668;2023-09-18T04:01:16;100252.66;;;13.31;100.00
64352;BME280;50680;52.626;-8.668;2023-09-18T04:03:43;100245.72;;;13.30;100.00
64352;BME280;50680;52.626;-8.668;2023-09-18T04:06:10;100253.41;;;13.33;100.00
64352;BME280;50680;52.626;-8.668;2023-09-18T04:08:37;100255.06;;;13.34;100.00
64352;BME280;50680;52.626;-8.668;2023-09-18T04:11:04;100262.38;;;13.42;100.00
64352;BME280;50680;52.626;-8.668;2023-09-18T04:13:31;100260.34;;;13.45;100.00
64352;BME280;50680;52.626;-8.668;2023-09-18T04:16:00;100258.06;;;13.52;100.00
64352;BME280;50680;52.626;-8.668;2023-09-18T04:18:27;100271.13;;;13.53;100.00
64352;BME280;50680;52.626;-8.668;2023-09-18T04:20:54;100280.78;;;13.53;100.00
64352;BME280;50680;52.626;-8.668;2023-09-18T04:23:23;100287.88;;;13.52;100.00
64352;BME280;50680;52.626;-8.668;2023-09-18T04:25:51;100278.66;;;13.47;100.00
64352;BME280;50680;52.626;-8.668;2023-09-18T04:28:20;100276.84;;;13.59;100.00
64352;BME280;50680;52.626;-8.668;2023-09-18T04:30:48;100279.25;;;13.62;100.00
64352;BME280;50680;52.626;-8.668;2023-09-18T04:33:15;100286.53;;;13.69;100.00
64352;BME280;50680;52.626;-8.668;2023-09-18T04:35:43;100283.44;;;13.64;100.00
64352;BME280;50680;52.626;-8.668;2023-09-18T04:38:10;100283.44;;;13.64;100.00
64352;BME280;50680;52.626;-8.668;2023-09-18T04:40:37;100284.72;;;13.70;100.00
64352;BME280;50680;52.626;-8.668;2023-09-18T04:43:07;100275.28;;;13.67;100.00
64352;BME280;50680;52.626;-8.668;2023-09-18T04:45:34;100284.84;;;13.68;100.00
64352;BME280;50680;52.626;-8.668;2023-09-18T04:48:01;100277.06;;;13.67;100.00
64352;BME280;50680;52.626;-8.668;2023-09-18T04:50:29;100276.63;;;13.62;100.00
64352;BME280;50680;52.626;-8.668;2023-09-18T04:52:57;100266.78;;;13.52;100.00
64352;BME280;50680;52.626;-8.668;2023-09-18T04:55:24;100272.44;;;13.48;100.00
64352;BME280;50680;52.626;-8.668;2023-09-18T04:57:51;100263.69;;;13.47;100.00
64352;BME280;50680;52.626;-8.668;2023-09-18T05:00:18;100276.63;;;13.50;100.00
64352;BME280;50680;52.626;-8.668;2023-09-18T05:02:50;100279.13;;;13.52;100.00
64352;BME280;50680;52.626;-8.668;2023-09-18T05:05:17;100278.31;;;13.51;100.00
64352;BME280;50680;52.626;-8.668;2023-09-18T05:07:44;100267.78;;;13.51;100.00
64352;BME280;50680;52.626;-8.668;2023-09-18T05:10:11;100274.81;;;13.51;100.00
64352;BME280;50680;52.626;-8.668;2023-09-18T05:12:39;100275.91;;;13.48;100.00
64352;BME280;50680;52.626;-8.668;2023-09-18T05:15:08;100267.53;;;13.43;100.00
64352;BME280;50680;52.626;-8.668;2023-09-18T05:17:54;100266.47;;;13.34;100.00
64352;BME280;50680;52.626;-8.668;2023-09-18T05:20:25;100269.88;;;13.12;100.00
64352;BME280;50680;52.626;-8.668;2023-09-18T05:22:52;100272.84;;;12.96;100.00
64352;BME280;50680;52.626;-8.668;2023-09-18T05:25:23;100267.19;;;12.78;100.00
64352;BME280;50680;52.626;-8.668;2023-09-18T05:27:52;100270.16;;;12.63;100.00
64352;BME280;50680;52.626;-8.668;2023-09-18T05:30:31;100269.25;;;12.51;100.00
64352;BME280;50680;52.626;-8.668;2023-09-18T05:33:02;100267.31;;;12.30;100.00
64352;BME280;50680;52.626;-8.668;2023-09-18T05:35:40;100263.38;;;12.12;100.00
64352;BME280;50680;52.626;-8.668;2023-09-18T05:38:11;100257.81;;;11.92;100.00
64352;BME280;50680;52.626;-8.668;2023-09-18T05:40:40;100249.09;;;11.79;100.00
64352;BME280;50680;52.626;-8.668;2023-09-18T05:43:07;100242.09;;;11.66;100.00
64352;BME280;50680;52.626;-8.668;2023-09-18T05:45:34;100257.66;;;11.57;100.00
64352;BME280;50680;52.626;-8.668;2023-09-18T05:48:01;100258.31;;;11.47;100.00
64352;BME280;50680;52.626;-8.668;2023-09-18T05:50:33;100258.13;;;11.38;100.00
64352;BME280;50680;52.626;-8.668;2023-09-18T05:53:02;100265.91;;;11.26;100.00
64352;BME280;50680;52.626;-8.668;2023-09-18T05:55:33;100261.38;;;11.16;100.00
64352;BME280;50680;52.626;-8.668;2023-09-18T05:58:01;100268.22;;;11.05;100.00
64352;BME280;50680;52.626;-8.668;2023-09-18T06:00:30;100265.41;;;10.96;100.00
64352;BME280;50680;52.626;-8.668;2023-09-18T06:02:58;100268.41;;;10.89;100.00
64352;BME280;50680;52.626;-8.668;2023-09-18T06:05:26;100265.38;;;10.83;100.00
64352;BME280;50680;52.626;-8.668;2023-09-18T06:07:53;100265.59;;;10.80;100.00
64352;BME280;50680;52.626;-8.668;2023-09-18T06:10:20;100266.72;;;10.76;100.00
64352;BME280;50680;52.626;-8.668;2023-09-18T06:12:47;100262.66;;;10.71;100.00
64352;BME280;50680;52.626;-8.668;2023-09-18T06:15:14;100262.94;;;10.67;100.00
64352;BME280;50680;52.626;-8.668;2023-09-18T06:17:43;100261.88;;;10.57;100.00
64352;BME280;50680;52.626;-8.668;2023-09-18T06:20:11;100267.31;;;10.53;100.00
64352;BME280;50680;52.626;-8.668;2023-09-18T06:22:43;100263.44;;;10.46;100.00
64352;BME280;50680;52.626;-8.668;2023-09-18T06:25:09;100268.13;;;10.41;100.00
64352;BME280;50680;52.626;-8.668;2023-09-18T06:27:37;100277.25;;;10.35;100.00
64352;BME280;50680;52.626;-8.668;2023-09-18T06:30:05;100273.22;;;10.30;100.00
64352;BME280;50680;52.626;-8.668;2023-09-18T06:32:32;100284.38;;;10.33;100.00
64352;BME280;50680;52.626;-8.668;2023-09-18T06:35:00;100279.56;;;10.40;100.00
64352;BME280;50680;52.626;-8.668;2023-09-18T06:37:27;100288.06;;;10.44;100.00
64352;BME280;50680;52.626;-8.668;2023-09-18T06:39:53;100288.06;;;10.44;100.00
64352;BME280;50680;52.626;-8.668;2023-09-18T06:42:20;100286.09;;;10.47;100.00
64352;BME280;50680;52.626;-8.668;2023-09-18T06:44:47;100287.47;;;10.53;100.00
64352;BME280;50680;52.626;-8.668;2023-09-18T06:47:14;100283.81;;;10.56;100.00
64352;BME280;50680;52.626;-8.668;2023-09-18T06:49:42;100277.22;;;10.63;100.00
64352;BME280;50680;52.626;-8.668;2023-09-18T06:52:09;100289.78;;;10.70;100.00
64352;BME280;50680;52.626;-8.668;2023-09-18T06:54:36;100307.13;;;10.86;100.00
64352;BME280;50680;52.626;-8.668;2023-09-18T06:57:03;100307.59;;;11.18;100.00
64352;BME280;50680;52.626;-8.668;2023-09-18T06:59:30;100305.97;;;11.54;100.00
64352;BME280;50680;52.626;-8.668;2023-09-18T07:01:57;100302.66;;;11.89;100.00
64352;BME280;50680;52.626;-8.668;2023-09-18T07:04:24;100314.47;;;12.08;100.00
64352;BME280;50680;52.626;-8.668;2023-09-18T07:06:51;100318.47;;;12.13;100.00
64352;BME280;50680;52.626;-8.668;2023-09-18T07:09:23;100318.13;;;12.18;100.00
64352;BME280;50680;52.626;-8.668;2023-09-18T07:11:51;100332.00;;;12.20;100.00
64352;BME280;50680;52.626;-8.668;2023-09-18T07:14:19;100332.22;;;12.17;100.00
64352;BME280;50680;52.626;-8.668;2023-09-18T07:16:45;100329.69;;;12.15;100.00
64352;BME280;50680;52.626;-8.668;2023-09-18T07:19:12;100331.25;;;12.18;100.00
64352;BME280;50680;52.626;-8.668;2023-09-18T07:21:44;100321.34;;;12.21;100.00
64352;BME280;50680;52.626;-8.668;2023-09-18T07:24:11;100318.19;;;12.29;100.00
64352;BME280;50680;52.626;-8.668;2023-09-18T07:26:47;100324.16;;;12.31;100.00
64352;BME280;50680;52.626;-8.668;2023-09-18T07:29:15;100325.59;;;12.35;100.00
64352;BME280;50680;52.626;-8.668;2023-09-18T07:31:43;100316.66;;;12.38;100.00
64352;BME280;50680;52.626;-8.668;2023-09-18T07:34:10;100311.59;;;12.48;100.00
64352;BME280;50680;52.626;-8.668;2023-09-18T07:36:40;100289.59;;;12.49;100.00
64352;BME280;50680;52.626;-8.668;2023-09-18T07:39:07;100289.25;;;12.53;100.00
64352;BME280;50680;52.626;-8.668;2023-09-18T07:41:34;100293.91;;;12.61;100.00
64352;BME280;50680;52.626;-8.668;2023-09-18T07:44:01;100294.00;;;12.84;100.00
64352;BME280;50680;52.626;-8.668;2023-09-18T07:46:27;100298.59;;;13.15;100.00
64352;BME280;50680;52.626;-8.668;2023-09-18T07:48:54;100300.06;;;13.65;100.00
64352;BME280;50680;52.626;-8.668;2023-09-18T07:51:21;100322.44;;;14.37;100.00
64352;BME280;50680;52.626;-8.668;2023-09-18T07:53:48;100321.13;;;14.75;100.00
64352;BME280;50680;52.626;-8.668;2023-09-18T07:56:15;100329.28;;;15.14;100.00
64352;BME280;50680;52.626;-8.668;2023-09-18T07:58:42;100321.72;;;15.61;100.00
64352;BME280;50680;52.626;-8.668;2023-09-18T08:01:09;100310.72;;;15.96;100.00
64352;BME280;50680;52.626;-8.668;2023-09-18T08:03:37;100306.31;;;16.26;100.00
64352;BME280;50680;52.626;-8.668;2023-09-18T08:06:04;100309.69;;;16.58;100.00
64352;BME280;50680;52.626;-8.668;2023-09-18T08:08:34;100307.06;;;17.24;100.00
64352;BME280;50680;52.626;-8.668;2023-09-18T08:11:07;100308.69;;;17.35;100.00
64352;BME280;50680;52.626;-8.668;2023-09-18T08:13:36;100292.59;;;17.56;100.00
64352;BME280;50680;52.626;-8.668;2023-09-18T08:16:05;100291.34;;;17.78;100.00
64352;BME280;50680;52.626;-8.668;2023-09-18T08:18:32;100283.22;;;18.08;100.00
64352;BME280;50680;52.626;-8.668;2023-09-18T08:20:59;100290.16;;;18.36;100.00
64352;BME280;50680;52.626;-8.668;2023-09-18T08:23:26;100290.97;;;18.55;100.00
64352;BME280;50680;52.626;-8.668;2023-09-18T08:25:54;100304.06;;;18.92;100.00
64352;BME280;50680;52.626;-8.668;2023-09-18T08:28:24;100310.09;;;19.29;100.00
64352;BME280;50680;52.626;-8.668;2023-09-18T08:30:51;100304.69;;;19.12;100.00
64352;BME280;50680;52.626;-8.668;2023-09-18T08:33:18;100305.06;;;18.73;100.00
64352;BME280;50680;52.626;-8.668;2023-09-18T08:35:45;100292.94;;;18.35;100.00
64352;BME280;50680;52.626;-8.668;2023-09-18T08:38:16;100309.28;;;17.94;100.00
64352;BME280;50680;52.626;-8.668;2023-09-18T08:40:43;100306.22;;;17.61;100.00
64352;BME280;50680;52.626;-8.668;2023-09-18T08:43:12;100300.91;;;17.34;100.00
64352;BME280;50680;52.626;-8.668;2023-09-18T08:45:47;100301.25;;;17.11;100.00
64352;BME280;50680;52.626;-8.668;2023-09-18T08:48:18;100305.22;;;16.87;100.00
64352;BME280;50680;52.626;-8.668;2023-09-18T08:50:47;100300.19;;;16.45;100.00
64352;BME280;50680;52.626;-8.668;2023-09-18T08:53:14;100304.66;;;16.54;100.00
64352;BME280;50680;52.626;-8.668;2023-09-18T08:55:41;100305.75;;;16.81;100.00
64352;BME280;50680;52.626;-8.668;2023-09-18T08:58:08;100304.00;;;17.19;100.00
64352;BME280;50680;52.626;-8.668;2023-09-18T09:00:38;100303.53;;;17.71;100.00
64352;BME280;50680;52.626;-8.668;2023-09-18T09:03:05;100302.09;;;18.04;100.00
64352;BME280;50680;52.626;-8.668;2023-09-18T09:05:32;100296.06;;;18.48;100.00
64352;BME280;50680;52.626;-8.668;2023-09-18T09:08:00;100294.72;;;18.70;100.00
64352;BME280;50680;52.626;-8.668;2023-09-18T09:10:28;100298.22;;;18.89;100.00
64352;BME280;50680;52.626;-8.668;2023-09-18T09:12:59;100303.22;;;19.18;100.00
64352;BME280;50680;52.626;-8.668;2023-09-18T09:15:31;100300.28;;;19.56;100.00
64352;BME280;50680;52.626;-8.668;2023-09-18T09:18:04;100291.97;;;19.24;100.00
64352;BME280;50680;52.626;-8.668;2023-09-18T09:20:32;100302.13;;;19.29;100.00
64352;BME280;50680;52.626;-8.668;2023-09-18T09:23:01;100305.44;;;19.31;100.00
64352;BME280;50680;52.626;-8.668;2023-09-18T09:25:30;100299.03;;;19.42;100.00
64352;BME280;50680;52.626;-8.668;2023-09-18T09:27:59;100292.91;;;19.49;100.00
64352;BME280;50680;52.626;-8.668;2023-09-18T09:30:28;100296.66;;;19.30;100.00
64352;BME280;50680;52.626;-8.668;2023-09-18T09:32:56;100295.41;;;19.16;100.00
64352;BME280;50680;52.626;-8.668;2023-09-18T09:35:29;100294.53;;;18.64;100.00
64352;BME280;50680;52.626;-8.668;2023-09-18T09:38:00;100300.22;;;18.51;100.00
64352;BME280;50680;52.626;-8.668;2023-09-18T09:40:29;100304.09;;;18.20;100.00
64352;BME280;50680;52.626;-8.668;2023-09-18T09:42:57;100307.50;;;18.13;100.00
64352;BME280;50680;52.626;-8.668;2023-09-18T09:45:29;100299.09;;;18.35;100.00
64352;BME280;50680;52.626;-8.668;2023-09-18T09:47:57;100299.28;;;18.60;100.00
64352;BME280;50680;52.626;-8.668;2023-09-18T09:50:25;100282.97;;;18.73;100.00
64352;BME280;50680;52.626;-8.668;2023-09-18T09:52:54;100266.13;;;18.82;100.00
64352;BME280;50680;52.626;-8.668;2023-09-18T09:58:00;100283.06;;;18.63;100.00
64352;BME280;50680;52.626;-8.668;2023-09-18T10:00:31;100305.91;;;18.56;100.00
64352;BME280;50680;52.626;-8.668;2023-09-18T10:03:06;100293.47;;;18.38;100.00
64352;BME280;50680;52.626;-8.668;2023-09-18T10:05:38;100299.84;;;18.28;100.00
64352;BME280;50680;52.626;-8.668;2023-09-18T10:08:10;100294.25;;;18.31;100.00
64352;BME280;50680;52.626;-8.668;2023-09-18T10:10:44;100293.50;;;18.20;100.00
64352;BME280;50680;52.626;-8.668;2023-09-18T10:13:33;100292.34;;;18.23;100.00
64352;BME280;50680;52.626;-8.668;2023-09-18T10:16:04;100295.47;;;18.36;100.00
64352;BME280;50680;52.626;-8.668;2023-09-18T10:18:45;100292.13;;;18.34;100.00
64352;BME280;50680;52.626;-8.668;2023-09-18T10:23:59;100296.66;;;17.78;100.00
64352;BME280;50680;52.626;-8.668;2023-09-18T10:26:32;100305.84;;;17.84;100.00
64352;BME280;50680;52.626;-8.668;2023-09-18T10:29:06;100314.16;;;17.61;100.00
64352;BME280;50680;52.626;-8.668;2023-09-18T10:31:36;100324.81;;;17.14;100.00
64352;BME280;50680;52.626;-8.668;2023-09-18T10:34:04;100338.50;;;17.00;100.00
64352;BME280;50680;52.626;-8.668;2023-09-18T10:36:34;100351.47;;;16.44;100.00
64352;BME280;50680;52.626;-8.668;2023-09-18T10:39:02;100356.56;;;16.16;100.00
64352;BME280;50680;52.626;-8.668;2023-09-18T10:41:36;100362.38;;;16.10;100.00
64352;BME280;50680;52.626;-8.668;2023-09-18T10:44:04;100365.03;;;16.01;100.00
64352;BME280;50680;52.626;-8.668;2023-09-18T10:46:32;100362.50;;;15.99;100.00
64352;BME280;50680;52.626;-8.668;2023-09-18T10:49:00;100356.41;;;16.08;100.00
64352;BME280;50680;52.626;-8.668;2023-09-18T10:51:28;100356.16;;;16.31;100.00
64352;BME280;50680;52.626;-8.668;2023-09-18T10:53:58;100354.78;;;16.36;100.00
64352;BME280;50680;52.626;-8.668;2023-09-18T10:56:26;100357.56;;;16.64;100.00
64352;BME280;50680;52.626;-8.668;2023-09-18T10:58:59;100351.47;;;16.64;100.00
64352;BME280;50680;52.626;-8.668;2023-09-18T11:01:28;100356.06;;;16.62;100.00
64352;BME280;50680;52.626;-8.668;2023-09-18T11:04:01;100345.34;;;16.92;100.00
64352;BME280;50680;52.626;-8.668;2023-09-18T11:06:28;100354.19;;;17.31;100.00
64352;BME280;50680;52.626;-8.668;2023-09-18T11:09:00;100355.75;;;17.61;100.00
64352;BME280;50680;52.626;-8.668;2023-09-18T11:11:31;100348.38;;;17.92;100.00
64352;BME280;50680;52.626;-8.668;2023-09-18T11:14:00;100348.63;;;17.99;100.00
64352;BME280;50680;52.626;-8.668;2023-09-18T11:21:29;100334.44;;;18.54;100.00
64352;BME280;50680;52.626;-8.668;2023-09-18T11:24:03;100332.13;;;18.77;100.00
64352;BME280;50680;52.626;-8.668;2023-09-18T11:26:39;100328.06;;;18.83;100.00
64352;BME280;50680;52.626;-8.668;2023-09-18T11:29:13;100336.53;;;19.30;100.00
64352;BME280;50680;52.626;-8.668;2023-09-18T11:32:06;100332.25;;;19.11;100.00
64352;BME280;50680;52.626;-8.668;2023-09-18T11:34:34;100324.41;;;19.02;100.00
64352;BME280;50680;52.626;-8.668;2023-09-18T11:37:21;100317.88;;;18.60;100.00
64352;BME280;50680;52.626;-8.668;2023-09-18T11:39:48;100321.59;;;18.85;100.00
64352;BME280;50680;52.626;-8.668;2023-09-18T11:42:20;100322.66;;;18.74;100.00
64352;BME280;50680;52.626;-8.668;2023-09-18T11:44:49;100317.66;;;18.89;100.00
64352;BME280;50680;52.626;-8.668;2023-09-18T11:47:18;100320.69;;;18.76;100.00
64352;BME280;50680;52.626;-8.668;2023-09-18T11:49:50;100311.50;;;18.71;100.00
64352;BME280;50680;52.626;-8.668;2023-09-18T11:52:24;100310.84;;;18.87;100.00
64352;BME280;50680;52.626;-8.668;2023-09-18T11:54:52;100321.88;;;19.00;100.00
64352;BME280;50680;52.626;-8.668;2023-09-18T11:57:19;100318.63;;;19.41;100.00
64352;BME280;50680;52.626;-8.668;2023-09-18T11:59:47;100313.53;;;19.47;100.00
64352;BME280;50680;52.626;-8.668;2023-09-18T12:02:28;100325.25;;;19.71;100.00
64352;BME280;50680;52.626;-8.668;2023-09-18T12:05:10;100310.75;;;20.00;100.00
64352;BME280;50680;52.626;-8.668;2023-09-18T12:07:37;100306.44;;;20.07;100.00
64352;BME280;50680;52.626;-8.668;2023-09-18T12:10:06;100319.09;;;20.29;100.00
64352;BME280;50680;52.626;-8.668;2023-09-18T12:12:35;100311.03;;;19.80;100.00
64352;BME280;50680;52.626;-8.668;2023-09-18T12:15:02;100321.69;;;19.20;100.00
64352;BME280;50680;52.626;-8.668;2023-09-18T12:17:30;100326.38;;;18.82;100.00
64352;BME280;50680;52.626;-8.668;2023-09-18T12:19:57;100328.91;;;18.29;100.00
64352;BME280;50680;52.626;-8.668;2023-09-18T12:22:26;100325.19;;;17.94;100.00
64352;BME280;50680;52.626;-8.668;2023-09-18T12:24:53;100309.91;;;17.51;100.00
64352;BME280;50680;52.626;-8.668;2023-09-18T12:27:36;100319.75;;;17.31;100.00
64352;BME280;50680;52.626;-8.668;2023-09-18T12:30:04;100319.56;;;17.42;100.00
64352;BME280;50680;52.626;-8.668;2023-09-18T12:32:32;100314.84;;;17.36;100.00
64352;BME280;50680;52.626;-8.668;2023-09-18T12:35:00;100313.28;;;17.43;100.00
64352;BME280;50680;52.626;-8.668;2023-09-18T12:37:27;100314.38;;;17.78;100.00
64352;BME280;50680;52.626;-8.668;2023-09-18T12:39:54;100313.94;;;18.10;100.00
64352;BME280;50680;52.626;-8.668;2023-09-18T12:42:20;100314.41;;;18.59;100.00
64352;BME280;50680;52.626;-8.668;2023-09-18T12:44:49;100318.41;;;18.82;100.00
64352;BME280;50680;52.626;-8.668;2023-09-18T12:47:16;100323.72;;;18.82;100.00
64352;BME280;50680;52.626;-8.668;2023-09-18T12:49:43;100327.44;;;18.71;100.00